createdAt,value
2019-04-10T00:02:09.124Z,27.93
2019-04-10T00:04:37.498Z,25.68
2019-04-10T00:07:13.828Z,32.38
2019-04-10T00:09:36.866Z,29.85
2019-04-10T00:12:07.409Z,28.30
2019-04-10T00:14:36.691Z,27.02
2019-04-10T00:17:05.411Z,27.87
2019-04-10T00:19:35.749Z,26.75
2019-04-10T00:22:04.322Z,26.60
2019-04-10T00:24:32.736Z,27.85
2019-04-10T00:27:02.057Z,30.30
2019-04-10T00:29:30.604Z,28.47
2019-04-10T00:32:01.682Z,29.42
2019-04-10T00:34:29.683Z,28.05
2019-04-10T00:36:58.164Z,29.85
2019-04-10T00:39:26.616Z,26.62
2019-04-10T00:41:55.051Z,29.72
2019-04-10T00:44:23.742Z,32.93
2019-04-10T00:46:52.779Z,31.10
2019-04-10T00:49:21.804Z,31.20
2019-04-10T00:51:50.441Z,28.30
2019-04-10T00:54:18.902Z,32.17
2019-04-10T00:56:47.330Z,29.37
2019-04-10T00:59:15.828Z,30.77
2019-04-10T01:01:44.296Z,33.53
2019-04-10T01:04:12.724Z,31.37
2019-04-10T01:06:41.181Z,32.78
2019-04-10T01:09:10.660Z,38.80
2019-04-10T01:11:39.271Z,33.70
2019-04-10T01:14:07.722Z,34.30
2019-04-10T01:16:36.244Z,36.80
2019-04-10T01:19:05.757Z,36.65
2019-04-10T01:21:34.639Z,40.55
2019-04-10T01:24:03.631Z,35.80
2019-04-10T01:26:32.181Z,36.60
2019-04-10T01:29:00.918Z,39.03
2019-04-10T01:31:29.515Z,35.83
2019-04-10T01:33:57.976Z,38.05
2019-04-10T01:36:26.992Z,37.80
2019-04-10T01:38:55.535Z,41.65
2019-04-10T01:41:23.990Z,42.75
2019-04-10T01:43:52.413Z,41.48
2019-04-10T01:46:21.039Z,39.45
2019-04-10T01:48:49.499Z,40.05
2019-04-10T01:51:17.929Z,41.95
2019-04-10T01:53:46.434Z,38.15
2019-04-10T01:56:23.940Z,38.60
2019-04-10T01:58:47.699Z,41.55
2019-04-10T02:01:29.803Z,38.58
2019-04-10T02:03:58.536Z,39.42
2019-04-10T02:06:27.424Z,37.60
2019-04-10T02:08:56.356Z,36.73
2019-04-10T02:11:25.870Z,38.92
2019-04-10T02:13:54.386Z,38.45
2019-04-10T02:16:24.103Z,37.20
2019-04-10T02:18:54.106Z,38.83
2019-04-10T02:21:23.454Z,37.17
2019-04-10T02:23:52.405Z,38.48
2019-04-10T02:26:21.326Z,38.63
2019-04-10T02:28:49.766Z,36.25
2019-04-10T02:31:19.289Z,40.80
2019-04-10T02:33:49.641Z,38.55
2019-04-10T02:36:19.466Z,38.17
2019-04-10T02:38:59.600Z,39.85
2019-04-10T02:41:19.314Z,40.60
2019-04-10T02:43:47.987Z,40.45
2019-04-10T02:46:16.516Z,37.73
2019-04-10T02:48:45.341Z,40.70
2019-04-10T02:51:15.403Z,37.67
2019-04-10T02:53:45.829Z,40.50
2019-04-10T02:56:15.908Z,38.45
2019-04-10T02:58:44.681Z,41.55
2019-04-10T03:01:13.565Z,38.83
2019-04-10T03:03:42.491Z,42.13
2019-04-10T03:06:11.807Z,45.00
2019-04-10T03:08:59.080Z,41.80
2019-04-10T03:11:12.493Z,41.50
2019-04-10T03:13:42.917Z,44.85
2019-04-10T03:16:11.884Z,40.20
2019-04-10T03:18:41.089Z,39.25
2019-04-10T03:21:09.531Z,40.73
2019-04-10T03:23:38.056Z,46.28
2019-04-10T03:26:07.565Z,42.05
2019-04-10T03:28:36.163Z,43.55
2019-04-10T03:31:07.123Z,39.50
2019-04-10T03:33:40.004Z,39.58
2019-04-10T03:36:07.375Z,43.05
2019-04-10T03:38:49.923Z,46.10
2019-04-10T03:41:06.199Z,39.78
2019-04-10T03:43:34.621Z,43.00
2019-04-10T03:46:03.316Z,40.00
2019-04-10T03:48:32.000Z,37.08
2019-04-10T03:51:00.562Z,40.67
2019-04-10T03:53:29.947Z,39.75
2019-04-10T03:55:59.141Z,39.67
2019-04-10T03:58:27.813Z,36.73
2019-04-10T04:00:56.517Z,40.85
2019-04-10T04:03:24.961Z,36.65
2019-04-10T04:05:53.385Z,38.50
2019-04-10T04:08:21.867Z,38.25
2019-04-10T04:10:51.250Z,34.30
2019-04-10T04:13:21.650Z,40.95
2019-04-10T04:15:50.676Z,36.40
2019-04-10T04:18:19.315Z,35.98
2019-04-10T04:20:47.774Z,34.03
2019-04-10T04:23:17.178Z,34.10
2019-04-10T04:25:46.217Z,36.08
2019-04-10T04:28:14.787Z,30.82
2019-04-10T04:30:43.224Z,29.57
2019-04-10T04:33:11.657Z,34.03
2019-04-10T04:35:40.829Z,35.90
2019-04-10T04:38:09.352Z,29.52
2019-04-10T04:40:37.830Z,29.60
2019-04-10T04:43:06.308Z,32.60
2019-04-10T04:45:35.488Z,29.00
2019-04-10T04:48:04.020Z,28.98
2019-04-10T04:50:34.098Z,28.25
2019-04-10T04:53:02.859Z,29.27
2019-04-10T04:55:31.287Z,26.77
2019-04-10T04:57:59.875Z,29.87
2019-04-10T05:00:28.309Z,26.93
2019-04-10T05:02:57.728Z,21.37
2019-04-10T05:05:27.131Z,21.70
2019-04-10T05:08:00.039Z,21.35
2019-04-10T05:10:25.786Z,25.88
2019-04-10T05:12:54.236Z,26.50
2019-04-10T05:15:22.705Z,25.80
2019-04-10T05:17:51.133Z,23.55
2019-04-10T05:20:19.615Z,22.98
2019-04-10T05:22:48.987Z,30.23
2019-04-10T05:25:18.968Z,24.07
2019-04-10T05:27:48.808Z,30.85
2019-04-10T05:30:18.407Z,33.18
2019-04-10T05:32:47.287Z,36.70
2019-04-10T05:35:15.899Z,42.85
2019-04-10T05:37:44.335Z,46.00
2019-04-10T05:40:12.904Z,47.58
2019-04-10T05:42:41.646Z,55.45
2019-04-10T05:45:10.702Z,52.35
2019-04-10T05:47:39.167Z,57.15
2019-04-10T05:50:08.020Z,56.77
2019-04-10T05:52:37.473Z,51.63
2019-04-10T05:55:06.917Z,54.85
2019-04-10T05:57:35.329Z,55.73
2019-04-10T06:00:10.206Z,58.85
2019-04-10T06:02:39.814Z,52.40
2019-04-10T06:05:08.425Z,51.95
2019-04-10T06:07:37.149Z,48.95
2019-04-10T06:10:10.322Z,51.23
2019-04-10T06:12:38.342Z,53.78
2019-04-10T06:15:07.584Z,54.27
2019-04-10T06:17:36.375Z,51.90
2019-04-10T06:20:07.098Z,56.42
2019-04-10T06:22:36.819Z,52.45
2019-04-10T06:25:09.277Z,54.33
2019-04-10T06:27:37.147Z,46.55
2019-04-10T06:30:07.929Z,49.25
2019-04-10T06:32:37.588Z,45.98
2019-04-10T06:35:08.085Z,50.00
2019-04-10T06:37:37.902Z,46.40
2019-04-10T06:40:14.289Z,45.48
2019-04-10T06:42:46.169Z,52.73
2019-04-10T06:45:07.846Z,41.75
2019-04-10T06:47:36.314Z,54.27
2019-04-10T06:50:07.486Z,50.45
2019-04-10T06:52:35.990Z,49.05
2019-04-10T06:55:05.995Z,51.98
2019-04-10T06:57:47.867Z,52.78
2019-04-10T07:00:12.119Z,46.77
2019-04-10T07:02:38.838Z,51.13
2019-04-10T07:05:10.272Z,51.28
2019-04-10T07:07:47.448Z,47.83
2019-04-10T07:10:20.481Z,57.40
2019-04-10T07:12:41.723Z,51.40
2019-04-10T07:15:10.776Z,49.40
2019-04-10T07:17:41.170Z,50.55
2019-04-10T07:20:09.646Z,55.28
2019-04-10T07:22:43.251Z,50.00
2019-04-10T07:25:10.357Z,50.80
2019-04-10T07:27:40.158Z,45.12
2019-04-10T07:30:09.843Z,46.90
2019-04-10T07:32:43.336Z,45.55
2019-04-10T07:35:11.876Z,50.92
2019-04-10T07:37:40.618Z,49.27
2019-04-10T07:40:10.145Z,50.73
2019-04-10T07:42:41.579Z,55.67
2019-04-10T07:45:09.296Z,59.67
2019-04-10T07:47:39.899Z,54.75
2019-04-10T07:50:10.295Z,54.10
2019-04-10T07:52:38.802Z,59.45
2019-04-10T07:55:08.504Z,53.38
2019-04-10T07:57:37.176Z,52.43
2019-04-10T08:00:09.042Z,55.33
2019-04-10T08:02:38.518Z,53.28
2019-04-10T08:05:08.195Z,65.97
2019-04-10T08:07:38.820Z,59.25
2019-04-10T08:10:08.052Z,52.55
2019-04-10T08:12:44.852Z,59.27
2019-04-10T08:15:07.711Z,55.98
2019-04-10T08:17:36.827Z,60.25
2019-04-10T08:20:07.902Z,59.20
2019-04-10T08:22:37.121Z,56.33
2019-04-10T08:25:09.034Z,57.10
2019-04-10T08:27:38.456Z,55.67
2019-04-10T08:30:10.828Z,61.58
2019-04-10T08:32:51.518Z,63.90
2019-04-10T08:35:09.678Z,56.92
2019-04-10T08:37:39.632Z,59.80
2019-04-10T08:40:09.646Z,61.90
2019-04-10T08:42:40.206Z,58.63
2019-04-10T08:45:09.210Z,64.65
2019-04-10T08:47:37.780Z,61.53
2019-04-10T08:50:07.910Z,63.30
2019-04-10T08:52:37.046Z,56.05
2019-04-10T08:55:06.201Z,62.58
2019-04-10T08:57:34.831Z,57.85
2019-04-10T09:00:06.058Z,59.75
2019-04-10T09:02:34.488Z,57.23
2019-04-10T09:05:03.655Z,60.52
2019-04-10T09:07:32.594Z,65.83
2019-04-10T09:10:01.838Z,77.85
2019-04-10T09:12:31.656Z,82.42
2019-04-10T09:15:01.367Z,79.45
2019-04-10T09:17:31.247Z,78.80
2019-04-10T09:20:00.576Z,82.35
2019-04-10T09:22:44.116Z,86.72
2019-04-10T09:25:00.583Z,84.75
2019-04-10T09:27:29.251Z,86.42
2019-04-10T09:29:57.680Z,90.55
2019-04-10T09:32:26.483Z,84.83
2019-04-10T09:34:56.084Z,82.75
2019-04-10T09:37:24.649Z,90.05
2019-04-10T09:39:54.663Z,86.67
2019-04-10T09:42:23.666Z,84.52
2019-04-10T09:44:52.829Z,81.32
2019-04-10T09:47:21.347Z,89.30
2019-04-10T09:49:49.928Z,81.55
2019-04-10T09:52:18.745Z,81.90
2019-04-10T09:54:47.264Z,73.90
2019-04-10T09:57:15.801Z,80.03
2019-04-10T09:59:45.583Z,82.47
2019-04-10T10:02:16.084Z,79.67
2019-04-10T10:04:45.905Z,82.45
2019-04-10T10:07:14.617Z,79.22
2019-04-10T10:09:43.236Z,80.47
2019-04-10T10:12:11.846Z,77.15
2019-04-10T10:14:40.441Z,72.12
2019-04-10T10:17:09.014Z,72.92
2019-04-10T10:19:39.163Z,71.77
2019-04-10T10:22:07.714Z,70.67
2019-04-10T10:24:36.228Z,71.05
2019-04-10T10:27:05.370Z,73.10
2019-04-10T10:29:33.888Z,78.30
2019-04-10T10:32:02.609Z,64.75
2019-04-10T10:34:31.069Z,69.25
2019-04-10T10:37:03.126Z,71.75
2019-04-10T10:39:30.835Z,76.47
2019-04-10T10:41:59.321Z,68.62
2019-04-10T10:44:27.957Z,72.53
2019-04-10T10:46:56.424Z,69.60
2019-04-10T10:49:25.016Z,67.40
2019-04-10T10:51:53.431Z,68.30
2019-04-10T10:54:23.013Z,66.55
2019-04-10T10:56:51.662Z,71.40
2019-04-10T10:59:20.186Z,70.67
2019-04-10T11:01:48.690Z,67.82
2019-04-10T11:04:17.148Z,66.45
2019-04-10T11:06:55.299Z,62.27
2019-04-10T11:09:18.201Z,69.20
2019-04-10T11:11:47.123Z,70.50
2019-04-10T11:14:16.071Z,68.12
2019-04-10T11:16:45.502Z,70.25
2019-04-10T11:19:15.263Z,67.80
2019-04-10T11:21:44.996Z,71.05
2019-04-10T11:24:13.737Z,74.15
2019-04-10T11:26:42.761Z,64.90
2019-04-10T11:29:14.211Z,62.98
2019-04-10T11:31:42.826Z,65.75
2019-04-10T11:34:11.453Z,65.22
2019-04-10T11:36:40.178Z,61.40
2019-04-10T11:41:41.170Z,65.70
2019-04-10T11:44:11.416Z,62.30
2019-04-10T11:46:41.917Z,68.07
2019-04-10T11:49:14.030Z,69.45
2019-04-10T11:51:41.084Z,73.37
2019-04-10T11:56:39.921Z,66.22
2019-04-10T11:59:11.274Z,67.10
2019-04-10T12:01:39.242Z,67.80
2019-04-10T12:04:10.229Z,77.62
2019-04-10T12:06:40.328Z,73.28
2019-04-10T12:11:41.551Z,75.37
2019-04-10T12:14:11.111Z,76.15
2019-04-10T12:16:39.660Z,75.70
2019-04-10T12:19:08.227Z,81.87
2019-04-10T12:21:37.916Z,82.78
2019-04-10T12:24:07.416Z,89.30
2019-04-10T12:26:36.034Z,86.12
2019-04-10T12:29:04.690Z,80.72
2019-04-10T12:31:34.508Z,78.30
2019-04-10T12:34:03.316Z,80.53
2019-04-10T12:36:32.011Z,82.27
2019-04-10T12:39:00.558Z,81.10
2019-04-10T12:41:29.133Z,75.80
2019-04-10T12:43:57.552Z,81.47
2019-04-10T12:46:26.782Z,77.03
2019-04-10T12:48:55.356Z,77.32
2019-04-10T12:51:23.776Z,78.30
2019-04-10T12:53:52.251Z,79.80
2019-04-10T12:56:20.681Z,74.65
2019-04-10T12:58:49.101Z,73.87
2019-04-10T13:01:17.758Z,72.85
2019-04-10T13:03:47.277Z,77.37
2019-04-10T13:06:15.900Z,73.17
2019-04-10T13:08:55.819Z,73.17
2019-04-10T13:11:14.629Z,82.53
2019-04-10T13:13:44.252Z,89.55
2019-04-10T13:16:13.936Z,72.45
2019-04-10T13:18:42.829Z,77.78
2019-04-10T13:21:12.475Z,76.15
2019-04-10T13:23:41.224Z,74.87
2019-04-10T13:26:10.857Z,73.10
2019-04-10T13:28:39.435Z,80.30
2019-04-10T13:31:08.884Z,75.65
2019-04-10T13:33:38.483Z,72.42
2019-04-10T13:36:07.290Z,69.20
2019-04-10T13:38:36.817Z,71.82
2019-04-10T13:41:05.720Z,76.17
2019-04-10T13:43:34.337Z,80.20
2019-04-10T13:46:02.764Z,74.10
2019-04-10T13:48:31.444Z,81.45
2019-04-10T13:51:01.156Z,117.70
2019-04-10T13:53:30.217Z,77.22
2019-04-10T13:55:59.021Z,71.28
2019-04-10T13:58:28.935Z,77.55
2019-04-10T14:00:58.672Z,72.10
2019-04-10T14:03:28.048Z,73.55
2019-04-10T14:05:57.052Z,84.40
2019-04-10T14:08:40.456Z,74.60
2019-04-10T14:10:57.203Z,76.33
2019-04-10T14:13:25.874Z,76.17
2019-04-10T14:15:54.450Z,81.70
2019-04-10T14:18:24.084Z,78.57
2019-04-10T14:20:53.393Z,79.45
2019-04-10T14:23:23.633Z,81.70
2019-04-10T14:25:53.982Z,81.50
2019-04-10T14:28:24.913Z,82.12
2019-04-10T14:30:55.734Z,80.35
2019-04-10T14:33:24.317Z,81.63
2019-04-10T14:35:53.661Z,81.42
2019-04-10T14:38:23.227Z,87.55
2019-04-10T14:40:51.921Z,79.90
2019-04-10T14:43:20.891Z,80.97
2019-04-10T14:45:49.971Z,77.30
2019-04-10T14:48:20.263Z,78.65
2019-04-10T14:50:49.176Z,77.90
2019-04-10T14:53:17.762Z,74.90
2019-04-10T14:55:46.280Z,80.22
2019-04-10T14:58:24.028Z,77.17
2019-04-10T15:00:47.120Z,75.92
2019-04-10T15:03:16.164Z,78.78
2019-04-10T15:05:50.565Z,80.38
2019-04-10T15:08:15.554Z,82.55
2019-04-10T15:10:45.049Z,81.12
2019-04-10T15:13:19.225Z,85.15
2019-04-10T15:15:44.927Z,81.20
2019-04-10T15:18:13.592Z,76.22
2019-04-10T15:20:42.554Z,85.47
2019-04-10T15:23:11.901Z,83.17
2019-04-10T15:25:41.599Z,77.82
2019-04-10T15:28:10.479Z,80.20
2019-04-10T15:30:39.129Z,81.50
2019-04-10T15:33:07.596Z,77.85
2019-04-10T15:35:36.035Z,80.10
2019-04-10T15:38:04.623Z,80.07
2019-04-10T15:40:33.088Z,75.78
2019-04-10T15:43:02.862Z,81.60
2019-04-10T15:45:32.487Z,75.20
2019-04-10T15:48:03.126Z,75.45
2019-04-10T15:50:32.599Z,75.40
2019-04-10T15:53:02.109Z,73.92
2019-04-10T15:55:32.046Z,79.00
2019-04-10T15:58:02.467Z,74.90
2019-04-10T16:00:30.966Z,74.20
2019-04-10T16:03:00.665Z,80.38
2019-04-10T16:05:29.461Z,75.32
2019-04-10T16:07:58.663Z,81.22
2019-04-10T16:10:29.067Z,75.80
2019-04-10T16:13:02.324Z,68.10
2019-04-10T16:15:35.189Z,72.10
2019-04-10T16:18:11.571Z,74.77
2019-04-10T16:20:41.055Z,81.67
2019-04-10T16:23:14.289Z,73.87
2019-04-10T16:25:44.858Z,76.72
2019-04-10T16:28:14.442Z,72.12
2019-04-10T16:30:43.251Z,72.12
2019-04-10T16:33:12.142Z,74.82
2019-04-10T16:35:40.822Z,78.92
2019-04-10T16:38:09.235Z,72.82
2019-04-10T16:40:38.333Z,70.80
2019-04-10T16:43:07.990Z,66.70
2019-04-10T16:45:36.667Z,65.70
2019-04-10T16:48:06.428Z,71.72
2019-04-10T16:50:36.281Z,71.15
2019-04-10T16:53:05.478Z,71.55
2019-04-10T16:55:34.629Z,63.10
2019-04-10T16:58:03.209Z,59.58
2019-04-10T17:00:31.664Z,63.02
2019-04-10T17:03:00.186Z,60.48
2019-04-10T17:05:28.717Z,65.12
2019-04-10T17:07:57.408Z,65.47
2019-04-10T17:10:28.796Z,62.43
2019-04-10T17:12:58.266Z,63.83
2019-04-10T17:15:28.070Z,66.65
2019-04-10T17:17:56.956Z,63.28
2019-04-10T17:20:26.646Z,67.20
2019-04-10T17:22:56.409Z,59.53
2019-04-10T17:25:26.241Z,63.55
2019-04-10T17:27:54.793Z,59.77
2019-04-10T17:30:23.502Z,63.58
2019-04-10T17:32:52.263Z,68.87
2019-04-10T17:35:21.358Z,68.15
2019-04-10T17:37:50.092Z,60.88
2019-04-10T17:40:30.148Z,56.95
2019-04-10T17:42:49.345Z,63.02
2019-04-10T17:45:18.532Z,63.90
2019-04-10T17:47:47.284Z,60.20
2019-04-10T17:50:18.251Z,58.48
2019-04-10T17:52:47.342Z,63.35
2019-04-10T17:55:15.734Z,63.83
2019-04-10T17:57:46.041Z,60.28
2019-04-10T18:00:22.854Z,65.37
2019-04-10T18:02:51.663Z,66.02
2019-04-10T18:05:20.454Z,61.98
2019-04-10T18:07:52.757Z,58.25
2019-04-10T18:10:22.520Z,57.33
2019-04-10T18:12:52.127Z,57.60
2019-04-10T18:15:21.921Z,55.92
2019-04-10T18:17:51.354Z,50.80
2019-04-10T18:20:20.017Z,53.68
2019-04-10T18:22:48.983Z,52.38
2019-04-10T18:25:18.641Z,54.25
2019-04-10T18:27:47.182Z,61.45
2019-04-10T18:30:16.197Z,60.05
2019-04-10T18:32:45.640Z,59.05
2019-04-10T18:35:14.384Z,60.35
2019-04-10T18:37:42.775Z,68.55
2019-04-10T18:40:11.451Z,64.62
2019-04-10T18:42:40.011Z,63.05
2019-04-10T18:45:09.273Z,54.55
2019-04-10T18:47:39.277Z,59.63
2019-04-10T18:50:08.323Z,62.78
2019-04-10T18:52:37.340Z,56.33
2019-04-10T18:55:06.473Z,56.28
2019-04-10T18:57:35.680Z,60.35
2019-04-10T19:00:10.227Z,54.25
2019-04-10T19:02:41.188Z,56.95
2019-04-10T19:05:14.226Z,55.17
2019-04-10T19:07:42.901Z,54.67
2019-04-10T19:10:12.875Z,54.65
2019-04-10T19:12:41.579Z,56.53
2019-04-10T19:15:10.781Z,57.90
2019-04-10T19:17:41.936Z,54.42
2019-04-10T19:20:11.154Z,57.98
2019-04-10T19:22:40.150Z,61.88
2019-04-10T19:25:10.507Z,55.75
2019-04-10T19:27:40.144Z,58.78
2019-04-10T19:30:26.709Z,56.28
2019-04-10T19:32:55.282Z,54.73
2019-04-10T19:35:23.719Z,62.95
2019-04-10T19:37:52.931Z,58.33
2019-04-10T19:40:21.491Z,57.33
2019-04-10T19:42:49.960Z,56.23
2019-04-10T19:45:19.526Z,55.90
2019-04-10T19:47:48.489Z,52.88
2019-04-10T19:50:17.338Z,54.77
2019-04-10T19:52:46.768Z,58.48
2019-04-10T19:55:15.683Z,60.28
2019-04-10T19:57:47.812Z,55.60
2019-04-10T20:00:18.378Z,61.65
2019-04-10T20:02:46.977Z,60.00
2019-04-10T20:05:15.573Z,61.73
2019-04-10T20:07:44.966Z,57.65
2019-04-10T20:10:14.375Z,59.42
2019-04-10T20:12:42.840Z,61.55
2019-04-10T20:15:12.192Z,55.20
2019-04-10T20:17:40.672Z,68.22
2019-04-10T20:20:09.251Z,60.80
2019-04-10T20:22:37.719Z,60.12
2019-04-10T20:25:06.328Z,58.63
2019-04-10T20:27:34.767Z,56.00
2019-04-10T20:30:04.326Z,56.63
2019-04-10T20:32:34.302Z,56.45
2019-04-10T20:35:02.872Z,54.33
2019-04-10T20:37:31.317Z,59.98
2019-04-10T20:39:59.791Z,56.75
2019-04-10T20:42:28.208Z,54.80
2019-04-10T20:44:56.964Z,53.23
2019-04-10T20:47:26.651Z,55.80
2019-04-10T20:49:55.369Z,58.92
2019-04-10T20:52:24.231Z,54.73
2019-04-10T20:54:53.129Z,54.53
2019-04-10T20:57:21.675Z,55.43
2019-04-10T20:59:51.022Z,54.53
2019-04-10T21:02:20.259Z,54.25
2019-04-10T21:04:56.584Z,53.02
2019-04-10T21:07:19.200Z,50.17
2019-04-10T21:09:48.146Z,53.02
2019-04-10T21:12:20.499Z,55.60
2019-04-10T21:14:47.988Z,54.33
2019-04-10T21:17:16.515Z,60.38
2019-04-10T21:19:45.393Z,59.95
2019-04-10T21:22:14.193Z,59.38
2019-04-10T21:24:43.405Z,55.35
2019-04-10T21:27:11.893Z,62.70
2019-04-10T21:29:57.867Z,69.42
2019-04-10T21:32:43.323Z,64.12
2019-04-10T21:35:13.788Z,56.45
2019-04-10T21:37:42.412Z,62.65
2019-04-10T21:40:11.157Z,64.77
2019-04-10T21:42:39.585Z,59.42
2019-04-10T21:45:09.433Z,69.53
2019-04-10T21:47:38.077Z,63.87
2019-04-10T21:50:08.857Z,55.38
2019-04-10T21:52:37.357Z,62.60
2019-04-10T21:55:07.062Z,60.55
2019-04-10T21:57:35.509Z,68.20
2019-04-10T22:00:07.948Z,58.95
2019-04-10T22:02:37.934Z,69.27
2019-04-10T22:05:08.339Z,67.67
2019-04-10T22:07:38.531Z,68.52
2019-04-10T22:10:28.100Z,70.28
2019-04-10T22:12:57.457Z,59.38
2019-04-10T22:15:39.499Z,61.15
2019-04-10T22:18:09.287Z,63.68
2019-04-10T22:20:39.651Z,67.70
2019-04-10T22:23:08.091Z,64.42
2019-04-10T22:25:37.372Z,65.45
2019-04-10T22:28:06.410Z,65.47
2019-04-10T22:30:35.065Z,62.53
2019-04-10T22:33:05.338Z,60.28
2019-04-10T22:35:34.022Z,60.88
2019-04-10T22:38:02.665Z,58.40
2019-04-10T22:40:31.276Z,59.73
2019-04-10T22:43:00.109Z,62.48
2019-04-10T22:45:32.662Z,62.48
2019-04-10T22:48:01.385Z,67.58
2019-04-10T22:50:31.066Z,59.95
2019-04-10T22:52:59.647Z,58.63
2019-04-10T22:55:28.260Z,61.53
2019-04-10T22:57:56.965Z,62.35
2019-04-10T23:00:28.020Z,58.80
2019-04-10T23:02:57.304Z,65.00
2019-04-10T23:05:26.755Z,63.73
2019-04-10T23:07:55.663Z,60.67
2019-04-10T23:10:24.808Z,64.05
2019-04-10T23:12:59.960Z,61.18
2019-04-10T23:15:23.738Z,58.13
2019-04-10T23:17:53.163Z,59.15
2019-04-10T23:20:21.666Z,62.03
2019-04-10T23:22:50.651Z,60.65
2019-04-10T23:25:20.436Z,61.30
2019-04-10T23:27:51.999Z,65.03
2019-04-10T23:30:20.018Z,61.75
2019-04-10T23:32:49.738Z,58.33
2019-04-10T23:35:19.077Z,57.10
2019-04-10T23:37:47.817Z,60.12
2019-04-10T23:40:16.869Z,58.25
2019-04-10T23:45:21.821Z,55.75
2019-04-10T23:47:50.619Z,55.52
2019-04-10T23:50:19.082Z,58.02
2019-04-10T23:52:47.977Z,62.20
2019-04-10T23:55:17.677Z,62.70
2019-04-10T23:57:46.412Z,58.20
